sensor_id;sensor_type;location;lat;lon;timestamp;P1;durP1;ratioP1;P2;durP2;ratioP2
66546;SDS011;53400;50.364;14.874;2022-10-26T00:01:01;20.45;;;13.80;;
66546;SDS011;53400;50.364;14.874;2022-10-26T00:03:34;25.38;;;15.73;;
66546;SDS011;53400;50.364;14.874;2022-10-26T00:06:02;19.73;;;13.05;;
66546;SDS011;53400;50.364;14.874;2022-10-26T00:08:32;23.85;;;15.65;;
66546;SDS011;53400;50.364;14.874;2022-10-26T00:10:58;23.48;;;15.02;;
66546;SDS011;53400;50.364;14.874;2022-10-26T00:13:25;22.58;;;14.30;;
66546;SDS011;53400;50.364;14.874;2022-10-26T00:15:52;19.83;;;13.93;;
66546;SDS011;53400;50.364;14.874;2022-10-26T00:18:18;17.90;;;12.43;;
66546;SDS011;53400;50.364;14.874;2022-10-26T00:20:44;23.10;;;13.45;;
66546;SDS011;53400;50.364;14.874;2022-10-26T00:23:09;20.48;;;13.43;;
66546;SDS011;53400;50.364;14.874;2022-10-26T00:25:35;23.45;;;14.20;;
66546;SDS011;53400;50.364;14.874;2022-10-26T00:28:01;20.15;;;13.10;;
66546;SDS011;53400;50.364;14.874;2022-10-26T00:30:29;19.33;;;12.52;;
66546;SDS011;53400;50.364;14.874;2022-10-26T00:32:55;20.02;;;13.80;;
66546;SDS011;53400;50.364;14.874;2022-10-26T00:35:21;19.48;;;13.15;;
66546;SDS011;53400;50.364;14.874;2022-10-26T00:37:46;18.98;;;12.68;;
66546;SDS011;53400;50.364;14.874;2022-10-26T00:40:12;17.15;;;11.95;;
66546;SDS011;53400;50.364;14.874;2022-10-26T00:42:38;19.02;;;11.95;;
66546;SDS011;53400;50.364;14.874;2022-10-26T00:45:05;20.25;;;11.93;;
66546;SDS011;53400;50.364;14.874;2022-10-26T00:47:41;18.85;;;11.85;;
66546;SDS011;53400;50.364;14.874;2022-10-26T00:50:11;18.52;;;11.77;;
66546;SDS011;53400;50.364;14.874;2022-10-26T00:52:42;17.80;;;10.73;;
66546;SDS011;53400;50.364;14.874;2022-10-26T00:55:09;18.20;;;11.02;;
66546;SDS011;53400;50.364;14.874;2022-10-26T00:57:35;22.30;;;11.98;;
66546;SDS011;53400;50.364;14.874;2022-10-26T01:00:03;19.40;;;11.18;;
66546;SDS011;53400;50.364;14.874;2022-10-26T01:02:31;18.85;;;11.13;;
66546;SDS011;53400;50.364;14.874;2022-10-26T01:04:58;20.70;;;11.38;;
66546;SDS011;53400;50.364;14.874;2022-10-26T01:07:27;20.55;;;11.52;;
66546;SDS011;53400;50.364;14.874;2022-10-26T01:09:53;21.25;;;12.10;;
66546;SDS011;53400;50.364;14.874;2022-10-26T01:12:20;24.42;;;12.63;;
66546;SDS011;53400;50.364;14.874;2022-10-26T01:14:46;26.15;;;12.45;;
66546;SDS011;53400;50.364;14.874;2022-10-26T01:17:16;24.55;;;13.20;;
66546;SDS011;53400;50.364;14.874;2022-10-26T01:23:01;20.17;;;10.13;;
66546;SDS011;53400;50.364;14.874;2022-10-26T01:25:38;20.42;;;10.57;;
66546;SDS011;53400;50.364;14.874;2022-10-26T01:28:10;15.55;;;9.88;;
66546;SDS011;53400;50.364;14.874;2022-10-26T01:30:46;22.42;;;11.65;;
66546;SDS011;53400;50.364;14.874;2022-10-26T01:33:21;22.15;;;11.85;;
66546;SDS011;53400;50.364;14.874;2022-10-26T01:35:59;17.80;;;11.65;;
66546;SDS011;53400;50.364;14.874;2022-10-26T01:38:30;19.73;;;10.88;;
66546;SDS011;53400;50.364;14.874;2022-10-26T01:41:06;21.05;;;11.55;;
66546;SDS011;53400;50.364;14.874;2022-10-26T01:43:36;17.35;;;10.70;;
66546;SDS011;53400;50.364;14.874;2022-10-26T01:46:07;20.98;;;11.23;;
66546;SDS011;53400;50.364;14.874;2022-10-26T01:48:35;17.98;;;11.88;;
66546;SDS011;53400;50.364;14.874;2022-10-26T01:51:04;16.75;;;11.48;;
66546;SDS011;53400;50.364;14.874;2022-10-26T01:53:32;25.52;;;11.73;;
66546;SDS011;53400;50.364;14.874;2022-10-26T01:55:58;23.75;;;11.60;;
66546;SDS011;53400;50.364;14.874;2022-10-26T02:01:31;28.70;;;10.68;;
66546;SDS011;53400;50.364;14.874;2022-10-26T02:04:14;19.33;;;10.15;;
66546;SDS011;53400;50.364;14.874;2022-10-26T02:06:56;29.42;;;10.55;;
66546;SDS011;53400;50.364;14.874;2022-10-26T02:11:59;20.40;;;10.55;;
66546;SDS011;53400;50.364;14.874;2022-10-26T02:14:32;19.50;;;11.57;;
66546;SDS011;53400;50.364;14.874;2022-10-26T02:17:06;23.40;;;11.35;;
66546;SDS011;53400;50.364;14.874;2022-10-26T02:22:10;17.90;;;10.18;;
66546;SDS011;53400;50.364;14.874;2022-10-26T02:24:41;32.17;;;11.52;;
66546;SDS011;53400;50.364;14.874;2022-10-26T02:27:10;21.38;;;13.55;;
66546;SDS011;53400;50.364;14.874;2022-10-26T02:29:40;21.45;;;13.23;;
66546;SDS011;53400;50.364;14.874;2022-10-26T02:32:09;23.48;;;13.10;;
66546;SDS011;53400;50.364;14.874;2022-10-26T02:34:37;16.75;;;10.88;;
66546;SDS011;53400;50.364;14.874;2022-10-26T02:37:05;16.85;;;10.52;;
66546;SDS011;53400;50.364;14.874;2022-10-26T02:39:32;17.63;;;10.18;;
66546;SDS011;53400;50.364;14.874;2022-10-26T02:42:02;22.15;;;11.38;;
66546;SDS011;53400;50.364;14.874;2022-10-26T02:44:32;17.63;;;10.32;;
66546;SDS011;53400;50.364;14.874;2022-10-26T02:47:01;20.27;;;10.55;;
66546;SDS011;53400;50.364;14.874;2022-10-26T02:49:29;25.60;;;12.60;;
66546;SDS011;53400;50.364;14.874;2022-10-26T02:51:57;20.45;;;12.45;;
66546;SDS011;53400;50.364;14.874;2022-10-26T02:54:29;20.00;;;12.38;;
66546;SDS011;53400;50.364;14.874;2022-10-26T02:57:00;15.82;;;9.95;;
66546;SDS011;53400;50.364;14.874;2022-10-26T02:59:31;20.30;;;11.10;;
66546;SDS011;53400;50.364;14.874;2022-10-26T03:02:01;24.65;;;10.57;;
66546;SDS011;53400;50.364;14.874;2022-10-26T03:04:29;17.02;;;10.48;;
66546;SDS011;53400;50.364;14.874;2022-10-26T03:06:56;19.58;;;10.95;;
66546;SDS011;53400;50.364;14.874;2022-10-26T03:09:22;16.92;;;10.30;;
66546;SDS011;53400;50.364;14.874;2022-10-26T03:11:48;16.63;;;10.50;;
66546;SDS011;53400;50.364;14.874;2022-10-26T03:14:14;18.45;;;10.63;;
66546;SDS011;53400;50.364;14.874;2022-10-26T03:16:40;18.60;;;10.02;;
66546;SDS011;53400;50.364;14.874;2022-10-26T03:19:06;15.50;;;9.20;;
66546;SDS011;53400;50.364;14.874;2022-10-26T03:21:33;15.88;;;9.65;;
66546;SDS011;53400;50.364;14.874;2022-10-26T03:23:59;18.00;;;10.20;;
66546;SDS011;53400;50.364;14.874;2022-10-26T03:26:25;21.35;;;11.00;;
66546;SDS011;53400;50.364;14.874;2022-10-26T03:28:51;23.25;;;11.23;;
66546;SDS011;53400;50.364;14.874;2022-10-26T03:31:17;18.65;;;10.73;;
66546;SDS011;53400;50.364;14.874;2022-10-26T03:33:43;21.45;;;11.45;;
66546;SDS011;53400;50.364;14.874;2022-10-26T03:36:09;23.17;;;11.82;;
66546;SDS011;53400;50.364;14.874;2022-10-26T03:38:36;27.25;;;12.23;;
66546;SDS011;53400;50.364;14.874;2022-10-26T03:41:02;26.38;;;11.45;;
66546;SDS011;53400;50.364;14.874;2022-10-26T03:43:28;21.02;;;10.77;;
66546;SDS011;53400;50.364;14.874;2022-10-26T03:45:54;41.55;;;13.50;;
66546;SDS011;53400;50.364;14.874;2022-10-26T03:48:19;29.90;;;11.73;;
66546;SDS011;53400;50.364;14.874;2022-10-26T03:50:45;18.63;;;10.02;;
66546;SDS011;53400;50.364;14.874;2022-10-26T03:53:11;32.03;;;11.60;;
66546;SDS011;53400;50.364;14.874;2022-10-26T03:55:38;35.22;;;12.02;;
66546;SDS011;53400;50.364;14.874;2022-10-26T03:58:07;37.47;;;11.98;;
66546;SDS011;53400;50.364;14.874;2022-10-26T04:00:33;30.55;;;12.13;;
66546;SDS011;53400;50.364;14.874;2022-10-26T04:02:59;35.17;;;11.70;;
66546;SDS011;53400;50.364;14.874;2022-10-26T04:05:26;21.58;;;11.60;;
66546;SDS011;53400;50.364;14.874;2022-10-26T04:07:53;38.35;;;13.35;;
66546;SDS011;53400;50.364;14.874;2022-10-26T04:10:20;38.85;;;12.65;;
66546;SDS011;53400;50.364;14.874;2022-10-26T04:12:48;44.33;;;12.93;;
66546;SDS011;53400;50.364;14.874;2022-10-26T04:15:14;41.55;;;11.25;;
66546;SDS011;53400;50.364;14.874;2022-10-26T04:17:40;30.73;;;12.82;;
66546;SDS011;53400;50.364;14.874;2022-10-26T04:20:07;35.08;;;13.25;;
66546;SDS011;53400;50.364;14.874;2022-10-26T04:22:34;53.78;;;14.30;;
66546;SDS011;53400;50.364;14.874;2022-10-26T04:25:01;29.63;;;12.05;;
66546;SDS011;53400;50.364;14.874;2022-10-26T04:27:26;25.23;;;13.10;;
66546;SDS011;53400;50.364;14.874;2022-10-26T04:29:54;26.55;;;11.63;;
66546;SDS011;53400;50.364;14.874;2022-10-26T04:32:19;33.13;;;13.07;;
66546;SDS011;53400;50.364;14.874;2022-10-26T04:34:45;32.90;;;13.20;;
66546;SDS011;53400;50.364;14.874;2022-10-26T04:37:11;26.02;;;13.05;;
66546;SDS011;53400;50.364;14.874;2022-10-26T04:39:37;29.10;;;13.05;;
66546;SDS011;53400;50.364;14.874;2022-10-26T04:42:03;20.50;;;11.60;;
66546;SDS011;53400;50.364;14.874;2022-10-26T04:44:29;30.55;;;12.02;;
66546;SDS011;53400;50.364;14.874;2022-10-26T04:46:56;23.27;;;12.13;;
66546;SDS011;53400;50.364;14.874;2022-10-26T04:49:22;18.92;;;10.48;;
66546;SDS011;53400;50.364;14.874;2022-10-26T04:51:48;32.38;;;12.77;;
66546;SDS011;53400;50.364;14.874;2022-10-26T04:54:14;36.10;;;12.15;;
66546;SDS011;53400;50.364;14.874;2022-10-26T04:56:40;28.30;;;10.68;;
66546;SDS011;53400;50.364;14.874;2022-10-26T04:59:06;26.20;;;11.32;;
66546;SDS011;53400;50.364;14.874;2022-10-26T05:01:32;22.50;;;10.52;;
66546;SDS011;53400;50.364;14.874;2022-10-26T05:03:59;25.30;;;12.68;;
66546;SDS011;53400;50.364;14.874;2022-10-26T05:06:25;18.73;;;10.93;;
66546;SDS011;53400;50.364;14.874;2022-10-26T05:08:51;21.98;;;12.30;;
66546;SDS011;53400;50.364;14.874;2022-10-26T05:11:17;22.88;;;12.18;;
66546;SDS011;53400;50.364;14.874;2022-10-26T05:13:43;27.75;;;13.52;;
66546;SDS011;53400;50.364;14.874;2022-10-26T05:16:11;31.92;;;13.85;;
66546;SDS011;53400;50.364;14.874;2022-10-26T05:18:37;31.13;;;14.73;;
66546;SDS011;53400;50.364;14.874;2022-10-26T05:21:04;40.47;;;15.73;;
66546;SDS011;53400;50.364;14.874;2022-10-26T05:23:30;39.40;;;14.13;;
66546;SDS011;53400;50.364;14.874;2022-10-26T05:25:56;55.72;;;15.88;;
66546;SDS011;53400;50.364;14.874;2022-10-26T05:28:22;25.38;;;13.43;;
66546;SDS011;53400;50.364;14.874;2022-10-26T05:30:48;41.10;;;15.40;;
66546;SDS011;53400;50.364;14.874;2022-10-26T05:33:14;28.75;;;15.15;;
66546;SDS011;53400;50.364;14.874;2022-10-26T05:35:40;29.73;;;13.88;;
66546;SDS011;53400;50.364;14.874;2022-10-26T05:38:08;32.22;;;14.23;;
66546;SDS011;53400;50.364;14.874;2022-10-26T05:40:35;27.25;;;12.98;;
66546;SDS011;53400;50.364;14.874;2022-10-26T05:43:01;23.85;;;13.30;;
66546;SDS011;53400;50.364;14.874;2022-10-26T05:45:27;32.88;;;16.63;;
66546;SDS011;53400;50.364;14.874;2022-10-26T05:47:53;51.03;;;14.88;;
66546;SDS011;53400;50.364;14.874;2022-10-26T05:50:19;45.65;;;14.77;;
66546;SDS011;53400;50.364;14.874;2022-10-26T05:52:45;56.45;;;18.50;;
66546;SDS011;53400;50.364;14.874;2022-10-26T05:55:15;45.50;;;17.52;;
66546;SDS011;53400;50.364;14.874;2022-10-26T05:57:42;55.60;;;19.10;;
66546;SDS011;53400;50.364;14.874;2022-10-26T06:00:09;86.13;;;20.98;;
66546;SDS011;53400;50.364;14.874;2022-10-26T06:02:41;31.35;;;13.63;;
66546;SDS011;53400;50.364;14.874;2022-10-26T06:05:18;48.92;;;15.98;;
66546;SDS011;53400;50.364;14.874;2022-10-26T06:07:48;48.00;;;15.15;;
66546;SDS011;53400;50.364;14.874;2022-10-26T06:10:16;53.92;;;16.15;;
66546;SDS011;53400;50.364;14.874;2022-10-26T06:12:43;23.58;;;11.13;;
66546;SDS011;53400;50.364;14.874;2022-10-26T06:15:11;64.57;;;20.27;;
66546;SDS011;53400;50.364;14.874;2022-10-26T06:17:42;49.80;;;15.85;;
66546;SDS011;53400;50.364;14.874;2022-10-26T06:20:25;70.80;;;18.70;;
66546;SDS011;53400;50.364;14.874;2022-10-26T06:23:13;60.05;;;16.67;;
66546;SDS011;53400;50.364;14.874;2022-10-26T06:25:58;83.53;;;19.38;;
66546;SDS011;53400;50.364;14.874;2022-10-26T06:28:31;53.65;;;15.35;;
66546;SDS011;53400;50.364;14.874;2022-10-26T06:31:03;54.78;;;15.48;;
66546;SDS011;53400;50.364;14.874;2022-10-26T06:33:29;70.50;;;15.93;;
66546;SDS011;53400;50.364;14.874;2022-10-26T06:35:57;74.38;;;15.65;;
66546;SDS011;53400;50.364;14.874;2022-10-26T06:38:33;59.25;;;14.80;;
66546;SDS011;53400;50.364;14.874;2022-10-26T06:41:02;50.72;;;14.85;;
66546;SDS011;53400;50.364;14.874;2022-10-26T06:43:30;44.72;;;16.08;;
66546;SDS011;53400;50.364;14.874;2022-10-26T06:46:00;74.95;;;17.60;;
66546;SDS011;53400;50.364;14.874;2022-10-26T06:48:33;41.00;;;15.63;;
66546;SDS011;53400;50.364;14.874;2022-10-26T06:51:08;48.25;;;15.25;;
66546;SDS011;53400;50.364;14.874;2022-10-26T06:53:40;45.95;;;16.75;;
66546;SDS011;53400;50.364;14.874;2022-10-26T06:56:13;45.40;;;17.80;;
66546;SDS011;53400;50.364;14.874;2022-10-26T06:58:40;47.88;;;18.50;;
66546;SDS011;53400;50.364;14.874;2022-10-26T07:01:09;56.97;;;17.48;;
66546;SDS011;53400;50.364;14.874;2022-10-26T07:03:36;51.97;;;17.48;;
66546;SDS011;53400;50.364;14.874;2022-10-26T07:06:02;62.67;;;18.38;;
66546;SDS011;53400;50.364;14.874;2022-10-26T07:08:29;52.08;;;18.58;;
66546;SDS011;53400;50.364;14.874;2022-10-26T07:10:56;50.55;;;17.10;;
66546;SDS011;53400;50.364;14.874;2022-10-26T07:13:23;57.88;;;18.55;;
66546;SDS011;53400;50.364;14.874;2022-10-26T07:15:49;64.05;;;20.20;;
66546;SDS011;53400;50.364;14.874;2022-10-26T07:18:15;51.70;;;18.48;;
66546;SDS011;53400;50.364;14.874;2022-10-26T07:20:41;80.65;;;21.17;;
66546;SDS011;53400;50.364;14.874;2022-10-26T07:23:07;58.05;;;19.63;;
66546;SDS011;53400;50.364;14.874;2022-10-26T07:25:37;90.15;;;23.10;;
66546;SDS011;53400;50.364;14.874;2022-10-26T07:28:04;69.75;;;20.23;;
66546;SDS011;53400;50.364;14.874;2022-10-26T07:30:32;114.68;;;23.17;;
66546;SDS011;53400;50.364;14.874;2022-10-26T07:32:58;120.38;;;23.92;;
66546;SDS011;53400;50.364;14.874;2022-10-26T07:35:25;80.28;;;21.73;;
66546;SDS011;53400;50.364;14.874;2022-10-26T07:37:54;42.80;;;19.92;;
66546;SDS011;53400;50.364;14.874;2022-10-26T07:40:21;75.10;;;21.27;;
66546;SDS011;53400;50.364;14.874;2022-10-26T07:42:47;119.43;;;24.30;;
66546;SDS011;53400;50.364;14.874;2022-10-26T07:45:12;67.22;;;21.25;;
66546;SDS011;53400;50.364;14.874;2022-10-26T07:47:40;58.38;;;21.17;;
66546;SDS011;53400;50.364;14.874;2022-10-26T07:50:06;67.35;;;21.75;;
66546;SDS011;53400;50.364;14.874;2022-10-26T07:52:33;77.00;;;19.95;;
66546;SDS011;53400;50.364;14.874;2022-10-26T07:55:01;96.43;;;24.33;;
66546;SDS011;53400;50.364;14.874;2022-10-26T07:57:27;70.20;;;23.27;;
66546;SDS011;53400;50.364;14.874;2022-10-26T07:59:53;137.98;;;26.25;;
66546;SDS011;53400;50.364;14.874;2022-10-26T08:02:19;98.95;;;24.15;;
66546;SDS011;53400;50.364;14.874;2022-10-26T08:04:46;149.98;;;29.35;;
66546;SDS011;53400;50.364;14.874;2022-10-26T08:07:12;63.38;;;22.08;;
66546;SDS011;53400;50.364;14.874;2022-10-26T08:09:38;78.60;;;25.00;;
66546;SDS011;53400;50.364;14.874;2022-10-26T08:12:06;74.63;;;24.08;;
66546;SDS011;53400;50.364;14.874;2022-10-26T08:14:32;67.93;;;23.70;;
66546;SDS011;53400;50.364;14.874;2022-10-26T08:16:58;92.10;;;25.75;;
66546;SDS011;53400;50.364;14.874;2022-10-26T08:19:24;60.70;;;23.10;;
66546;SDS011;53400;50.364;14.874;2022-10-26T08:21:51;65.10;;;25.13;;
66546;SDS011;53400;50.364;14.874;2022-10-26T08:24:17;62.80;;;23.98;;
66546;SDS011;53400;50.364;14.874;2022-10-26T08:26:43;79.65;;;26.85;;
66546;SDS011;53400;50.364;14.874;2022-10-26T08:29:08;126.60;;;28.52;;
66546;SDS011;53400;50.364;14.874;2022-10-26T08:31:34;101.53;;;28.52;;
66546;SDS011;53400;50.364;14.874;2022-10-26T08:34:00;62.03;;;26.63;;
66546;SDS011;53400;50.364;14.874;2022-10-26T08:36:28;62.35;;;25.75;;
66546;SDS011;53400;50.364;14.874;2022-10-26T08:38:55;54.65;;;26.13;;
66546;SDS011;53400;50.364;14.874;2022-10-26T08:41:23;56.40;;;26.52;;
66546;SDS011;53400;50.364;14.874;2022-10-26T08:43:58;58.30;;;26.50;;
66546;SDS011;53400;50.364;14.874;2022-10-26T08:46:28;53.40;;;26.77;;
66546;SDS011;53400;50.364;14.874;2022-10-26T08:48:59;51.67;;;26.05;;
66546;SDS011;53400;50.364;14.874;2022-10-26T08:51:35;48.95;;;25.33;;
66546;SDS011;53400;50.364;14.874;2022-10-26T08:54:08;52.22;;;26.85;;
66546;SDS011;53400;50.364;14.874;2022-10-26T08:56:38;48.60;;;25.70;;
66546;SDS011;53400;50.364;14.874;2022-10-26T08:59:09;47.95;;;25.65;;
66546;SDS011;53400;50.364;14.874;2022-10-26T09:01:41;54.20;;;27.90;;
66546;SDS011;53400;50.364;14.874;2022-10-26T09:04:08;38.95;;;20.60;;
66546;SDS011;53400;50.364;14.874;2022-10-26T09:06:41;49.20;;;25.85;;
66546;SDS011;53400;50.364;14.874;2022-10-26T09:09:15;48.17;;;26.13;;
66546;SDS011;53400;50.364;14.874;2022-10-26T09:11:50;43.97;;;24.38;;
66546;SDS011;53400;50.364;14.874;2022-10-26T09:14:22;39.90;;;24.08;;
66546;SDS011;53400;50.364;14.874;2022-10-26T09:16:59;42.55;;;23.98;;
66546;SDS011;53400;50.364;14.874;2022-10-26T09:19:46;43.95;;;24.45;;
66546;SDS011;53400;50.364;14.874;2022-10-26T09:22:24;38.75;;;22.48;;
66546;SDS011;53400;50.364;14.874;2022-10-26T09:24:59;36.33;;;21.27;;
66546;SDS011;53400;50.364;14.874;2022-10-26T09:27:33;38.55;;;22.92;;
66546;SDS011;53400;50.364;14.874;2022-10-26T09:30:10;39.00;;;22.63;;
66546;SDS011;53400;50.364;14.874;2022-10-26T09:32:39;38.15;;;21.83;;
66546;SDS011;53400;50.364;14.874;2022-10-26T09:35:11;33.38;;;21.48;;
66546;SDS011;53400;50.364;14.874;2022-10-26T09:37:40;37.05;;;23.40;;
66546;SDS011;53400;50.364;14.874;2022-10-26T09:40:14;36.97;;;22.77;;
66546;SDS011;53400;50.364;14.874;2022-10-26T09:42:48;42.72;;;23.70;;
66546;SDS011;53400;50.364;14.874;2022-10-26T09:45:23;36.40;;;22.73;;
66546;SDS011;53400;50.364;14.874;2022-10-26T09:47:55;37.00;;;22.30;;
66546;SDS011;53400;50.364;14.874;2022-10-26T09:50:26;36.00;;;22.63;;
66546;SDS011;53400;50.364;14.874;2022-10-26T09:52:56;32.80;;;21.38;;
66546;SDS011;53400;50.364;14.874;2022-10-26T09:55:23;32.88;;;19.90;;
66546;SDS011;53400;50.364;14.874;2022-10-26T09:57:50;37.72;;;22.50;;
66546;SDS011;53400;50.364;14.874;2022-10-26T10:00:19;34.97;;;21.88;;
66546;SDS011;53400;50.364;14.874;2022-10-26T10:02:49;37.58;;;23.20;;
66546;SDS011;53400;50.364;14.874;2022-10-26T10:05:26;35.08;;;23.85;;
66546;SDS011;53400;50.364;14.874;2022-10-26T10:08:08;33.55;;;21.90;;
66546;SDS011;53400;50.364;14.874;2022-10-26T10:10:37;34.42;;;22.33;;
66546;SDS011;53400;50.364;14.874;2022-10-26T10:13:13;36.13;;;22.52;;
66546;SDS011;53400;50.364;14.874;2022-10-26T10:15:40;38.05;;;24.00;;
66546;SDS011;53400;50.364;14.874;2022-10-26T10:18:17;34.38;;;21.65;;
66546;SDS011;53400;50.364;14.874;2022-10-26T10:20:48;33.28;;;23.10;;
66546;SDS011;53400;50.364;14.874;2022-10-26T10:23:22;35.83;;;22.60;;
66546;SDS011;53400;50.364;14.874;2022-10-26T10:25:58;32.60;;;21.17;;
66546;SDS011;53400;50.364;14.874;2022-10-26T10:28:26;37.03;;;21.88;;
66546;SDS011;53400;50.364;14.874;2022-10-26T10:30:53;31.88;;;21.17;;
66546;SDS011;53400;50.364;14.874;2022-10-26T10:33:21;37.38;;;22.10;;
66546;SDS011;53400;50.364;14.874;2022-10-26T10:35:48;33.50;;;20.50;;
66546;SDS011;53400;50.364;14.874;2022-10-26T10:38:17;36.60;;;21.05;;
66546;SDS011;53400;50.364;14.874;2022-10-26T10:40:48;33.72;;;20.50;;
66546;SDS011;53400;50.364;14.874;2022-10-26T10:43:17;40.15;;;23.52;;
66546;SDS011;53400;50.364;14.874;2022-10-26T10:45:45;33.97;;;19.85;;
66546;SDS011;53400;50.364;14.874;2022-10-26T10:48:13;41.80;;;20.20;;
66546;SDS011;53400;50.364;14.874;2022-10-26T10:50:49;28.05;;;18.05;;
66546;SDS011;53400;50.364;14.874;2022-10-26T10:53:17;27.45;;;17.00;;
66546;SDS011;53400;50.364;14.874;2022-10-26T10:55:54;28.98;;;16.40;;
66546;SDS011;53400;50.364;14.874;2022-10-26T10:58:39;27.70;;;16.95;;
66546;SDS011;53400;50.364;14.874;2022-10-26T11:01:17;22.65;;;15.32;;
66546;SDS011;53400;50.364;14.874;2022-10-26T11:03:58;22.40;;;15.38;;
66546;SDS011;53400;50.364;14.874;2022-10-26T11:06:34;24.40;;;14.85;;
66546;SDS011;53400;50.364;14.874;2022-10-26T11:09:04;26.67;;;17.38;;
66546;SDS011;53400;50.364;14.874;2022-10-26T11:11:34;31.58;;;19.55;;
66546;SDS011;53400;50.364;14.874;2022-10-26T11:14:08;30.02;;;18.73;;
66546;SDS011;53400;50.364;14.874;2022-10-26T11:16:39;28.30;;;18.73;;
66546;SDS011;53400;50.364;14.874;2022-10-26T11:19:12;25.63;;;15.77;;
66546;SDS011;53400;50.364;14.874;2022-10-26T11:21:44;30.85;;;17.70;;
66546;SDS011;53400;50.364;14.874;2022-10-26T11:24:15;26.98;;;17.92;;
66546;SDS011;53400;50.364;14.874;2022-10-26T11:26:48;27.05;;;18.13;;
66546;SDS011;53400;50.364;14.874;2022-10-26T11:29:26;24.48;;;16.95;;
66546;SDS011;53400;50.364;14.874;2022-10-26T11:31:58;24.83;;;17.13;;
66546;SDS011;53400;50.364;14.874;2022-10-26T11:34:30;23.88;;;16.40;;
66546;SDS011;53400;50.364;14.874;2022-10-26T11:37:04;22.55;;;15.18;;
66546;SDS011;53400;50.364;14.874;2022-10-26T11:39:37;25.40;;;16.05;;
66546;SDS011;53400;50.364;14.874;2022-10-26T11:42:12;21.35;;;15.60;;
66546;SDS011;53400;50.364;14.874;2022-10-26T11:44:47;21.90;;;15.38;;
66546;SDS011;53400;50.364;14.874;2022-10-26T11:47:17;21.45;;;14.18;;
66546;SDS011;53400;50.364;14.874;2022-10-26T11:49:49;22.20;;;14.55;;
66546;SDS011;53400;50.364;14.874;2022-10-26T11:52:18;19.30;;;13.80;;
66546;SDS011;53400;50.364;14.874;2022-10-26T11:54:52;24.35;;;15.90;;
66546;SDS011;53400;50.364;14.874;2022-10-26T11:57:20;25.58;;;16.25;;
66546;SDS011;53400;50.364;14.874;2022-10-26T11:59:50;23.67;;;15.25;;
66546;SDS011;53400;50.364;14.874;2022-10-26T12:02:19;23.88;;;16.48;;
66546;SDS011;53400;50.364;14.874;2022-10-26T12:04:48;22.38;;;15.15;;
66546;SDS011;53400;50.364;14.874;2022-10-26T12:07:20;21.70;;;14.48;;
66546;SDS011;53400;50.364;14.874;2022-10-26T12:09:50;24.15;;;15.35;;
66546;SDS011;53400;50.364;14.874;2022-10-26T12:12:20;25.05;;;15.32;;
66546;SDS011;53400;50.364;14.874;2022-10-26T12:14:55;20.50;;;14.43;;
66546;SDS011;53400;50.364;14.874;2022-10-26T12:17:30;23.73;;;15.23;;
66546;SDS011;53400;50.364;14.874;2022-10-26T12:20:04;24.35;;;15.50;;
66546;SDS011;53400;50.364;14.874;2022-10-26T12:22:39;24.23;;;14.20;;
66546;SDS011;53400;50.364;14.874;2022-10-26T12:25:07;23.27;;;14.63;;
66546;SDS011;53400;50.364;14.874;2022-10-26T12:27:51;23.02;;;14.95;;
66546;SDS011;53400;50.364;14.874;2022-10-26T12:33:09;19.55;;;12.73;;
66546;SDS011;53400;50.364;14.874;2022-10-26T12:35:53;17.92;;;12.85;;
66546;SDS011;53400;50.364;14.874;2022-10-26T12:41:29;16.83;;;12.68;;
66546;SDS011;53400;50.364;14.874;2022-10-26T12:44:01;17.42;;;12.50;;
66546;SDS011;53400;50.364;14.874;2022-10-26T12:46:49;18.23;;;12.97;;
66546;SDS011;53400;50.364;14.874;2022-10-26T12:52:21;15.88;;;10.85;;
66546;SDS011;53400;50.364;14.874;2022-10-26T12:54:56;14.43;;;10.18;;
66546;SDS011;53400;50.364;14.874;2022-10-26T12:57:48;15.77;;;9.70;;
66546;SDS011;53400;50.364;14.874;2022-10-26T13:00:24;12.93;;;8.50;;
66546;SDS011;53400;50.364;14.874;2022-10-26T13:02:56;15.93;;;10.88;;
66546;SDS011;53400;50.364;14.874;2022-10-26T13:05:38;14.40;;;10.45;;
66546;SDS011;53400;50.364;14.874;2022-10-26T13:08:24;13.60;;;9.63;;
66546;SDS011;53400;50.364;14.874;2022-10-26T13:11:01;16.75;;;9.93;;
66546;SDS011;53400;50.364;14.874;2022-10-26T13:13:29;14.32;;;8.00;;
66546;SDS011;53400;50.364;14.874;2022-10-26T13:16:00;10.60;;;6.25;;
66546;SDS011;53400;50.364;14.874;2022-10-26T13:18:44;10.75;;;6.75;;
66546;SDS011;53400;50.364;14.874;2022-10-26T13:21:17;11.20;;;6.50;;
66546;SDS011;53400;50.364;14.874;2022-10-26T13:23:47;11.82;;;7.00;;
66546;SDS011;53400;50.364;14.874;2022-10-26T13:26:22;10.63;;;6.55;;
66546;SDS011;53400;50.364;14.874;2022-10-26T13:28:50;10.30;;;6.63;;
66546;SDS011;53400;50.364;14.874;2022-10-26T13:34:21;11.23;;;6.35;;
66546;SDS011;53400;50.364;14.874;2022-10-26T13:36:50;12.57;;;6.65;;
66546;SDS011;53400;50.364;14.874;2022-10-26T13:39:20;11.60;;;6.50;;
66546;SDS011;53400;50.364;14.874;2022-10-26T13:41:50;11.02;;;6.60;;
66546;SDS011;53400;50.364;14.874;2022-10-26T13:44:21;9.75;;;6.72;;
66546;SDS011;53400;50.364;14.874;2022-10-26T13:46:50;10.63;;;6.15;;
66546;SDS011;53400;50.364;14.874;2022-10-26T13:49:22;10.93;;;6.57;;
66546;SDS011;53400;50.364;14.874;2022-10-26T13:51:52;10.20;;;6.47;;
66546;SDS011;53400;50.364;14.874;2022-10-26T13:54:20;11.52;;;6.10;;
66546;SDS011;53400;50.364;14.874;2022-10-26T13:56:58;11.52;;;7.63;;
66546;SDS011;53400;50.364;14.874;2022-10-26T13:59:30;11.13;;;6.63;;
66546;SDS011;53400;50.364;14.874;2022-10-26T14:02:07;11.98;;;6.88;;
66546;SDS011;53400;50.364;14.874;2022-10-26T14:04:50;11.10;;;7.55;;
66546;SDS011;53400;50.364;14.874;2022-10-26T14:07:18;13.00;;;7.97;;
66546;SDS011;53400;50.364;14.874;2022-10-26T14:09:51;12.00;;;7.10;;
66546;SDS011;53400;50.364;14.874;2022-10-26T14:12:18;13.10;;;7.07;;
66546;SDS011;53400;50.364;14.874;2022-10-26T14:14:45;11.98;;;7.60;;
66546;SDS011;53400;50.364;14.874;2022-10-26T14:17:13;13.10;;;8.73;;
66546;SDS011;53400;50.364;14.874;2022-10-26T14:19:44;12.98;;;8.32;;
66546;SDS011;53400;50.364;14.874;2022-10-26T14:22:15;12.63;;;8.30;;
66546;SDS011;53400;50.364;14.874;2022-10-26T14:24:48;12.90;;;8.50;;
66546;SDS011;53400;50.364;14.874;2022-10-26T14:27:16;12.60;;;8.88;;
66546;SDS011;53400;50.364;14.874;2022-10-26T14:29:43;14.20;;;8.65;;
66546;SDS011;53400;50.364;14.874;2022-10-26T14:32:18;11.50;;;7.82;;
66546;SDS011;53400;50.364;14.874;2022-10-26T14:34:45;12.57;;;8.23;;
66546;SDS011;53400;50.364;14.874;2022-10-26T14:37:11;12.30;;;8.52;;
66546;SDS011;53400;50.364;14.874;2022-10-26T14:39:47;12.73;;;8.23;;
66546;SDS011;53400;50.364;14.874;2022-10-26T14:42:14;12.90;;;8.55;;
66546;SDS011;53400;50.364;14.874;2022-10-26T14:44:52;13.82;;;8.77;;
66546;SDS011;53400;50.364;14.874;2022-10-26T14:47:20;11.30;;;8.13;;
66546;SDS011;53400;50.364;14.874;2022-10-26T14:49:49;11.73;;;8.18;;